Time;durP1;ratioP1;P1;durP2;ratioP2;P2;SDS_P1;SDS_P2;PMS_P1;PMS_P2;Temp;Humidity;BMP_temperature;BMP_pressure;BME280_temperature;BME280_humidity;BME280_pressure;Samples;Min_cycle;Max_cycle;Signal;HPM_P1;HPM_P2
2023/08/28 00:00:51;;;;;;;9.82;8.55;;;;;;;;;;10429784;28;20417;-86
2023/08/28 00:05:54;;;;;;;10.00;7.88;;;;;;;;;;10439460;28;20428;-86
2023/08/28 00:10:57;;;;;;;11.52;9.13;;;;;;;;;;10442031;28;20457;-86
2023/08/28 00:16:00;;;;;;;10.50;8.45;;;;;;;;;;10452986;28;20411;-87
2023/08/28 00:21:03;;;;;;;10.80;8.73;;;;;;;;;;10448228;28;20399;-87
2023/08/28 00:26:07;;;;;;;10.27;8.02;;;;;;;;;;10437373;28;20935;-86
2023/08/28 00:31:09;;;;;;;12.10;8.50;;;;;;;;;;10440043;28;20481;-86
2023/08/28 00:36:12;;;;;;;11.45;8.30;;;;;;;;;;10442037;28;20408;-86
2023/08/28 00:41:15;;;;;;;10.57;8.23;;;;;;;;;;10442116;28;20443;-86
2023/08/28 00:46:18;;;;;;;10.63;8.40;;;;;;;;;;10439669;28;20465;-87
2023/08/28 00:51:20;;;;;;;12.03;8.60;;;;;;;;;;10438322;28;20407;-85
2023/08/28 00:56:24;;;;;;;11.53;9.23;;;;;;;;;;10439224;28;20461;-86
2023/08/28 01:01:26;;;;;;;14.25;9.52;;;;;;;;;;10441176;28;20469;-86
2023/08/28 01:06:36;;;;;;;11.65;9.68;;;;;;;;;;10444762;28;20459;-86
2023/08/28 01:11:47;;;;;;;13.00;9.30;;;;;;;;;;10445727;28;20416;-86
2023/08/28 01:16:51;;;;;;;14.13;9.32;;;;;;;;;;10445368;28;20477;-86
2023/08/28 01:21:57;;;;;;;11.88;9.48;;;;;;;;;;10448863;28;20474;-86
2023/08/28 01:27:02;;;;;;;12.43;9.60;;;;;;;;;;10436810;28;20428;-85
2023/08/28 01:32:05;;;;;;;11.65;9.40;;;;;;;;;;10439708;28;20407;-87
2023/08/28 01:37:13;;;;;;;13.33;9.67;;;;;;;;;;10445127;28;20466;-86
2023/08/28 01:42:19;;;;;;;12.35;9.48;;;;;;;;;;10443946;28;20412;-86
2023/08/28 01:47:22;;;;;;;13.18;9.52;;;;;;;;;;10438582;28;20938;-86
2023/08/28 01:52:24;;;;;;;13.30;10.23;;;;;;;;;;10438246;28;20931;-87
2023/08/28 01:57:28;;;;;;;14.75;10.30;;;;;;;;;;10439703;28;20466;-86
2023/08/28 02:02:31;;;;;;;13.93;10.47;;;;;;;;;;10437569;28;20400;-86
2023/08/28 02:07:33;;;;;;;13.57;10.57;;;;;;;;;;10442129;28;20509;-86
2023/08/28 02:12:37;;;;;;;14.98;11.57;;;;;;;;;;10440097;28;20442;-85
2023/08/28 02:17:39;;;;;;;16.33;11.23;;;;;;;;;;10438480;28;20553;-87
2023/08/28 02:22:42;;;;;;;15.95;11.48;;;;;;;;;;10439884;28;20946;-85
2023/08/28 02:27:46;;;;;;;15.73;11.30;;;;;;;;;;10437084;28;20455;-86
2023/08/28 02:32:48;;;;;;;18.13;11.48;;;;;;;;;;10444374;28;20884;-87
2023/08/28 02:37:50;;;;;;;15.38;11.38;;;;;;;;;;10433406;28;20415;-87
2023/08/28 02:42:54;;;;;;;15.20;10.50;;;;;;;;;;10439931;28;20450;-86
2023/08/28 02:47:57;;;;;;;14.40;10.57;;;;;;;;;;10428182;28;20424;-86
2023/08/28 02:52:59;;;;;;;16.20;11.03;;;;;;;;;;10436457;28;20954;-86
2023/08/28 02:58:03;;;;;;;15.00;11.30;;;;;;;;;;10444532;28;20848;-86
2023/08/28 03:03:05;;;;;;;16.80;11.90;;;;;;;;;;10439540;28;20510;-85
2023/08/28 03:08:07;;;;;;;15.50;12.07;;;;;;;;;;10441305;28;20470;-86
2023/08/28 03:13:11;;;;;;;18.17;11.97;;;;;;;;;;10437330;28;20489;-86
2023/08/28 03:18:14;;;;;;;15.77;11.40;;;;;;;;;;10432403;28;20413;-85
2023/08/28 03:23:16;;;;;;;14.63;11.97;;;;;;;;;;10436849;28;20429;-86
2023/08/28 03:28:20;;;;;;;16.43;12.30;;;;;;;;;;10435025;28;20420;-86
2023/08/28 03:33:22;;;;;;;18.42;13.45;;;;;;;;;;10437516;28;20408;-86
2023/08/28 03:38:24;;;;;;;19.83;14.38;;;;;;;;;;10435008;28;20466;-86
2023/08/28 03:43:28;;;;;;;16.92;13.18;;;;;;;;;;10433651;28;20491;-86
2023/08/28 03:48:30;;;;;;;19.95;13.90;;;;;;;;;;10441196;28;20975;-85
2023/08/28 03:53:32;;;;;;;16.05;12.63;;;;;;;;;;10444920;28;20400;-85
2023/08/28 03:58:36;;;;;;;17.90;13.63;;;;;;;;;;10448436;28;20409;-87
2023/08/28 04:03:39;;;;;;;22.73;14.27;;;;;;;;;;10443556;28;20409;-86
2023/08/28 04:08:41;;;;;;;18.40;13.20;;;;;;;;;;10446714;28;20909;-85
2023/08/28 04:13:46;;;;;;;20.92;13.50;;;;;;;;;;10446499;28;20408;-87
2023/08/28 04:18:49;;;;;;;18.10;13.37;;;;;;;;;;10444925;28;20945;-87
2023/08/28 04:23:51;;;;;;;16.13;13.32;;;;;;;;;;10441995;28;20408;-87
2023/08/28 04:28:55;;;;;;;19.98;13.10;;;;;;;;;;10438489;28;20420;-86
2023/08/28 04:33:57;;;;;;;21.90;13.70;;;;;;;;;;10443172;28;20408;-87
2023/08/28 04:39:00;;;;;;;17.95;12.88;;;;;;;;;;10440035;28;20469;-86
2023/08/28 04:44:03;;;;;;;16.73;12.27;;;;;;;;;;10436214;28;20434;-86
2023/08/28 04:49:06;;;;;;;19.23;14.00;;;;;;;;;;10443076;28;20481;-85
2023/08/28 04:54:08;;;;;;;17.52;13.02;;;;;;;;;;10451467;28;20411;-86
2023/08/28 04:59:12;;;;;;;16.65;13.30;;;;;;;;;;10443906;28;20403;-86
2023/08/28 05:04:14;;;;;;;18.53;13.73;;;;;;;;;;10436942;28;20763;-83
2023/08/28 05:09:16;;;;;;;17.23;13.50;;;;;;;;;;10434253;28;20419;-87
2023/08/28 05:14:20;;;;;;;19.45;13.55;;;;;;;;;;10437116;28;20408;-87
2023/08/28 05:19:23;;;;;;;19.63;13.75;;;;;;;;;;10443765;28;20399;-87
2023/08/28 05:24:25;;;;;;;18.63;14.40;;;;;;;;;;10444604;28;20503;-86
2023/08/28 05:29:29;;;;;;;23.30;14.83;;;;;;;;;;10449676;28;20909;-86
2023/08/28 05:34:32;;;;;;;20.58;14.18;;;;;;;;;;10445614;28;20444;-86
2023/08/28 05:39:34;;;;;;;21.08;14.95;;;;;;;;;;10448700;28;20412;-87
2023/08/28 05:44:38;;;;;;;18.00;14.40;;;;;;;;;;10449765;28;20465;-86
2023/08/28 05:49:40;;;;;;;19.33;14.88;;;;;;;;;;10448641;28;20795;-87
2023/08/28 05:54:43;;;;;;;21.35;14.77;;;;;;;;;;10443260;28;20408;-86
2023/08/28 05:59:47;;;;;;;19.67;14.10;;;;;;;;;;10449593;28;20400;-86
2023/08/28 06:04:51;;;;;;;20.45;14.38;;;;;;;;;;10437570;28;20419;-86
2023/08/28 06:09:53;;;;;;;23.45;15.80;;;;;;;;;;10439766;28;20423;-86
2023/08/28 06:14:57;;;;;;;19.95;15.00;;;;;;;;;;10441480;28;20558;-86
2023/08/28 06:19:59;;;;;;;20.80;14.45;;;;;;;;;;10440040;28;20409;-86
2023/08/28 06:25:01;;;;;;;21.63;14.73;;;;;;;;;;10439017;28;20465;-85
2023/08/28 06:30:06;;;;;;;19.50;14.95;;;;;;;;;;10437185;28;20985;-86
2023/08/28 06:35:09;;;;;;;19.88;15.15;;;;;;;;;;10439249;28;20412;-86
2023/08/28 06:40:12;;;;;;;21.70;15.50;;;;;;;;;;10434042;28;20452;-86
2023/08/28 06:45:15;;;;;;;22.73;15.82;;;;;;;;;;10436717;28;20413;-86
2023/08/28 06:50:18;;;;;;;22.97;15.87;;;;;;;;;;10436070;28;20450;-86
2023/08/28 06:55:20;;;;;;;21.73;15.15;;;;;;;;;;10447941;28;20450;-87
2023/08/28 07:00:24;;;;;;;22.75;15.77;;;;;;;;;;10438825;28;20409;-87
2023/08/28 07:05:26;;;;;;;21.80;15.43;;;;;;;;;;10443800;28;20465;-85
2023/08/28 07:10:29;;;;;;;21.08;15.07;;;;;;;;;;10439848;28;20427;-86
2023/08/28 07:15:58;;;;;;;22.40;15.73;;;;;;;;;;10436808;28;20891;-87
2023/08/28 07:21:01;;;;;;;19.27;14.07;;;;;;;;;;10439297;28;20446;-87
2023/08/28 07:26:04;;;;;;;20.23;15.02;;;;;;;;;;10437924;28;20777;-87
2023/08/28 07:31:06;;;;;;;17.52;14.38;;;;;;;;;;10436771;28;20446;-86
2023/08/28 07:36:10;;;;;;;18.80;14.38;;;;;;;;;;10429633;28;20442;-86
2023/08/28 07:41:12;;;;;;;17.98;14.73;;;;;;;;;;10433916;28;20396;-87
2023/08/28 07:46:15;;;;;;;18.10;13.88;;;;;;;;;;10437965;28;20473;-87
2023/08/28 07:51:18;;;;;;;17.15;12.93;;;;;;;;;;10433876;28;20404;-87
2023/08/28 07:56:21;;;;;;;19.02;14.52;;;;;;;;;;10442560;28;20400;-87
2023/08/28 08:01:23;;;;;;;21.23;15.50;;;;;;;;;;10439183;28;20412;-86
2023/08/28 08:06:27;;;;;;;19.77;15.07;;;;;;;;;;10436173;28;20469;-86
2023/08/28 08:11:29;;;;;;;21.77;15.32;;;;;;;;;;10438895;28;20418;-86
2023/08/28 08:16:31;;;;;;;18.48;14.43;;;;;;;;;;10432771;28;20460;-86
2023/08/28 08:21:36;;;;;;;19.23;14.20;;;;;;;;;;10439846;28;20477;-87
2023/08/28 08:26:38;;;;;;;18.53;13.93;;;;;;;;;;10435268;28;20421;-87
2023/08/28 08:31:40;;;;;;;19.73;15.03;;;;;;;;;;10438018;28;20467;-87
2023/08/28 08:36:52;;;;;;;18.00;13.47;;;;;;;;;;10443616;28;20407;-85
2023/08/28 08:41:55;;;;;;;15.52;12.43;;;;;;;;;;10440116;28;20428;-87
2023/08/28 08:46:58;;;;;;;15.25;11.52;;;;;;;;;;10440215;28;20473;-85
2023/08/28 08:52:06;;;;;;;13.68;10.65;;;;;;;;;;10443023;28;20461;-85
2023/08/28 08:57:14;;;;;;;13.53;10.33;;;;;;;;;;10442325;28;20436;-86
2023/08/28 09:02:16;;;;;;;13.38;10.57;;;;;;;;;;10439431;28;20464;-87
2023/08/28 09:07:20;;;;;;;13.05;9.50;;;;;;;;;;10445345;28;20450;-87
2023/08/28 09:12:23;;;;;;;12.25;9.57;;;;;;;;;;10443130;28;20396;-86
2023/08/28 09:17:26;;;;;;;14.00;9.60;;;;;;;;;;10435685;28;20404;-86
2023/08/28 09:22:30;;;;;;;15.63;9.20;;;;;;;;;;10441992;28;20411;-87
2023/08/28 09:27:39;;;;;;;13.93;10.23;;;;;;;;;;10433863;28;20928;-87
2023/08/28 09:32:46;;;;;;;14.73;9.53;;;;;;;;;;10439641;28;20431;-85
2023/08/28 09:37:57;;;;;;;15.13;10.00;;;;;;;;;;10433601;28;20888;-87
2023/08/28 09:43:01;;;;;;;15.23;8.98;;;;;;;;;;10439515;28;20473;-87
2023/08/28 09:48:05;;;;;;;11.87;8.17;;;;;;;;;;10441943;28;20546;-86
2023/08/28 09:53:13;;;;;;;13.13;8.47;;;;;;;;;;10446859;28;20408;-87
2023/08/28 09:58:23;;;;;;;12.60;8.30;;;;;;;;;;10444675;28;20424;-86
2023/08/28 10:03:26;;;;;;;13.52;8.20;;;;;;;;;;10440144;28;20777;-86
2023/08/28 10:08:34;;;;;;;11.98;7.13;;;;;;;;;;10444621;28;20421;-86
2023/08/28 10:13:41;;;;;;;12.70;7.30;;;;;;;;;;10446630;28;20499;-86
2023/08/28 10:18:50;;;;;;;11.73;7.10;;;;;;;;;;10422292;28;20460;-86
2023/08/28 10:23:54;;;;;;;12.57;7.53;;;;;;;;;;10429067;28;20494;-85
2023/08/28 10:28:58;;;;;;;13.05;7.05;;;;;;;;;;10426605;28;20519;-86
2023/08/28 10:34:03;;;;;;;14.33;7.47;;;;;;;;;;10428472;28;20495;-85
2023/08/28 10:39:11;;;;;;;13.77;7.72;;;;;;;;;;10418631;28;20911;-85
2023/08/28 10:44:17;;;;;;;12.70;7.47;;;;;;;;;;10417869;28;20958;-86
2023/08/28 10:49:19;;;;;;;13.23;7.93;;;;;;;;;;10419314;28;20513;-86
2023/08/28 10:54:24;;;;;;;16.37;8.77;;;;;;;;;;10433389;28;20867;-84
2023/08/28 10:59:27;;;;;;;16.40;8.60;;;;;;;;;;10424294;28;20419;-85
2023/08/28 11:04:35;;;;;;;12.80;8.85;;;;;;;;;;10435900;28;20481;-85
2023/08/28 11:09:40;;;;;;;13.67;7.50;;;;;;;;;;10428936;28;20511;-85
2023/08/28 11:14:58;;;;;;;10.73;7.18;;;;;;;;;;10432276;28;20404;-86
2023/08/28 11:20:05;;;;;;;10.03;6.03;;;;;;;;;;10419142;28;20765;-86
2023/08/28 11:25:11;;;;;;;12.07;6.38;;;;;;;;;;10434377;28;20504;-86
2023/08/28 11:30:15;;;;;;;9.50;5.50;;;;;;;;;;10431897;28;20536;-86
2023/08/28 11:35:18;;;;;;;9.30;5.38;;;;;;;;;;10429344;28;20412;-86
2023/08/28 11:40:24;;;;;;;8.73;4.97;;;;;;;;;;10430195;28;20477;-87
2023/08/28 11:45:27;;;;;;;10.20;4.83;;;;;;;;;;10438223;28;20892;-84
2023/08/28 11:50:29;;;;;;;8.63;4.63;;;;;;;;;;10431116;28;20463;-86
2023/08/28 11:55:34;;;;;;;8.30;4.80;;;;;;;;;;10438469;28;20757;-85
2023/08/28 12:00:37;;;;;;;6.80;4.60;;;;;;;;;;10437695;28;20465;-85
2023/08/28 12:05:40;;;;;;;7.67;4.67;;;;;;;;;;10435257;28;20473;-86
2023/08/28 12:10:44;;;;;;;6.88;4.20;;;;;;;;;;10443731;28;20475;-87
2023/08/28 12:15:47;;;;;;;7.77;4.67;;;;;;;;;;10447752;28;20438;-86
2023/08/28 12:20:50;;;;;;;6.60;3.60;;;;;;;;;;10444213;28;20400;-86
2023/08/28 12:25:55;;;;;;;4.60;3.08;;;;;;;;;;10443701;28;20477;-85
2023/08/28 12:30:57;;;;;;;4.95;2.72;;;;;;;;;;10441551;28;20993;-86
2023/08/28 12:36:04;;;;;;;4.63;2.45;;;;;;;;;;10435467;28;20431;-86
2023/08/28 12:41:10;;;;;;;5.17;2.67;;;;;;;;;;10440385;28;20416;-87
2023/08/28 12:46:13;;;;;;;3.47;2.47;;;;;;;;;;10446696;28;20887;-86
2023/08/28 12:51:16;;;;;;;4.07;2.15;;;;;;;;;;10442950;28;20459;-86
2023/08/28 12:56:19;;;;;;;6.03;2.28;;;;;;;;;;10446730;28;20415;-87
2023/08/28 13:01:22;;;;;;;4.07;2.03;;;;;;;;;;10448464;22;20446;-87
2023/08/28 13:06:24;;;;;;;5.60;2.10;;;;;;;;;;10438516;28;20446;-87
2023/08/28 13:11:28;;;;;;;3.77;1.87;;;;;;;;;;10438326;28;20489;-85
2023/08/28 13:16:31;;;;;;;4.82;2.15;;;;;;;;;;10426212;28;20467;-87
2023/08/28 13:21:34;;;;;;;3.83;2.00;;;;;;;;;;10437459;28;20762;-87
2023/08/28 13:26:38;;;;;;;3.67;2.10;;;;;;;;;;10440299;28;20400;-86
2023/08/28 13:31:40;;;;;;;3.23;2.33;;;;;;;;;;10428480;28;21070;-87
2023/08/28 13:36:43;;;;;;;3.60;2.00;;;;;;;;;;10436264;28;20955;-87
2023/08/28 13:41:48;;;;;;;4.10;1.88;;;;;;;;;;10437729;28;20400;-87
2023/08/28 13:46:50;;;;;;;5.38;2.50;;;;;;;;;;10441917;28;20450;-87
2023/08/28 13:51:52;;;;;;;4.93;2.47;;;;;;;;;;10446911;28;20442;-87
2023/08/28 13:56:56;;;;;;;6.43;2.90;;;;;;;;;;10451717;28;20489;-87
2023/08/28 14:01:59;;;;;;;4.90;2.50;;;;;;;;;;10440492;28;20438;-87
2023/08/28 14:07:01;;;;;;;4.47;2.87;;;;;;;;;;10434935;28;20414;-87
2023/08/28 14:12:05;;;;;;;5.33;2.90;;;;;;;;;;10435357;28;20493;-86
2023/08/28 14:17:07;;;;;;;4.22;2.38;;;;;;;;;;10444309;28;20810;-87
2023/08/28 14:22:10;;;;;;;5.03;2.30;;;;;;;;;;10445921;28;20462;-86
2023/08/28 14:27:13;;;;;;;8.75;3.13;;;;;;;;;;10445536;28;20559;-87
2023/08/28 14:32:16;;;;;;;8.45;4.47;;;;;;;;;;10447378;28;20427;-87
2023/08/28 14:37:18;;;;;;;9.87;5.17;;;;;;;;;;10437402;28;20405;-86
2023/08/28 14:42:22;;;;;;;12.60;6.57;;;;;;;;;;10433141;28;20493;-86
2023/08/28 14:47:24;;;;;;;11.45;6.07;;;;;;;;;;10439451;28;20415;-86
2023/08/28 14:52:26;;;;;;;12.27;6.72;;;;;;;;;;10444594;28;20459;-86
2023/08/28 14:57:30;;;;;;;13.25;6.32;;;;;;;;;;10437737;28;21028;-86
2023/08/28 15:02:32;;;;;;;8.82;5.00;;;;;;;;;;10442233;28;20530;-86
2023/08/28 15:07:34;;;;;;;9.27;4.82;;;;;;;;;;10438290;28;20401;-86
2023/08/28 15:12:38;;;;;;;6.73;3.33;;;;;;;;;;10442558;28;20968;-86
2023/08/28 15:17:40;;;;;;;9.65;4.38;;;;;;;;;;10439326;28;20883;-86
2023/08/28 15:22:43;;;;;;;7.17;3.23;;;;;;;;;;10437821;28;20961;-86
2023/08/28 15:27:47;;;;;;;7.38;3.45;;;;;;;;;;10434523;28;20446;-86
2023/08/28 15:32:49;;;;;;;6.90;3.30;;;;;;;;;;10440545;28;20911;-87
2023/08/28 15:37:51;;;;;;;5.90;3.35;;;;;;;;;;10441126;28;20402;-88
2023/08/28 15:42:56;;;;;;;5.80;3.45;;;;;;;;;;10430742;28;20413;-85
2023/08/28 15:47:58;;;;;;;3.67;1.90;;;;;;;;;;10440699;28;20405;-85
2023/08/28 15:53:00;;;;;;;1.92;0.80;;;;;;;;;;10445013;28;20453;-87
2023/08/28 15:58:04;;;;;;;2.42;0.80;;;;;;;;;;10444711;28;20785;-86
2023/08/28 16:03:07;;;;;;;1.47;0.67;;;;;;;;;;10429419;28;20475;-86
2023/08/28 16:08:10;;;;;;;1.75;0.70;;;;;;;;;;10437515;28;20471;-86
2023/08/28 16:13:14;;;;;;;1.67;0.90;;;;;;;;;;10437375;28;20481;-80
2023/08/28 16:18:16;;;;;;;6.53;3.28;;;;;;;;;;10431976;28;20542;-79
2023/08/28 16:23:20;;;;;;;7.00;3.40;;;;;;;;;;10432966;28;20501;-81
2023/08/28 16:28:24;;;;;;;4.75;2.78;;;;;;;;;;10433548;28;20450;-81
2023/08/28 16:33:26;;;;;;;2.45;1.60;;;;;;;;;;10429586;28;21295;-80
2023/08/28 16:38:28;;;;;;;2.92;1.27;;;;;;;;;;10435834;28;20514;-83
2023/08/28 16:43:32;;;;;;;2.90;1.10;;;;;;;;;;10432303;28;20425;-81
2023/08/28 16:48:35;;;;;;;1.23;0.85;;;;;;;;;;10434456;28;20453;-79
2023/08/28 16:53:38;;;;;;;2.10;0.90;;;;;;;;;;10427741;28;20451;-80
2023/08/28 16:58:41;;;;;;;1.13;0.60;;;;;;;;;;10431864;28;20439;-78
2023/08/28 17:03:44;;;;;;;1.30;0.75;;;;;;;;;;10431344;28;20448;-77
2023/08/28 17:08:46;;;;;;;1.45;0.95;;;;;;;;;;10427763;28;20656;-77
2023/08/28 17:13:50;;;;;;;2.90;1.02;;;;;;;;;;10430492;28;20580;-78
2023/08/28 17:18:52;;;;;;;5.32;1.90;;;;;;;;;;10430423;28;20449;-76
2023/08/28 17:23:54;;;;;;;4.60;3.22;;;;;;;;;;10419137;28;20987;-79
2023/08/28 17:28:59;;;;;;;6.95;3.40;;;;;;;;;;10419117;28;20435;-79
2023/08/28 17:34:01;;;;;;;5.55;2.85;;;;;;;;;;10422279;28;20483;-78
2023/08/28 17:39:16;;;;;;;3.40;2.17;;;;;;;;;;10425245;28;20439;-87
2023/08/28 17:44:20;;;;;;;3.38;1.80;;;;;;;;;;10432445;28;20757;-85
2023/08/28 17:49:22;;;;;;;5.15;2.10;;;;;;;;;;10433131;28;20424;-86
2023/08/28 17:54:26;;;;;;;4.10;2.30;;;;;;;;;;10439396;28;20467;-86
2023/08/28 17:59:30;;;;;;;4.75;2.75;;;;;;;;;;10440696;28;20489;-85
2023/08/28 18:04:32;;;;;;;3.22;1.92;;;;;;;;;;10430728;28;20467;-85
2023/08/28 18:09:34;;;;;;;3.40;2.15;;;;;;;;;;10427617;28;20484;-85
2023/08/28 18:14:38;;;;;;;4.23;2.27;;;;;;;;;;10435859;28;20451;-85
2023/08/28 18:19:40;;;;;;;3.50;1.90;;;;;;;;;;10439289;28;20919;-84
2023/08/28 18:24:42;;;;;;;6.27;2.40;;;;;;;;;;10435560;28;20419;-84
2023/08/28 18:29:46;;;;;;;4.40;2.15;;;;;;;;;;10433480;28;21232;-85
2023/08/28 18:34:48;;;;;;;3.70;2.13;;;;;;;;;;10437059;28;20430;-85
2023/08/28 18:39:51;;;;;;;4.72;2.15;;;;;;;;;;10440238;28;20409;-86
2023/08/28 18:44:56;;;;;;;3.13;2.30;;;;;;;;;;10441432;28;20863;-86
2023/08/28 18:49:59;;;;;;;4.68;2.60;;;;;;;;;;10439825;28;20450;-87
2023/08/28 18:55:01;;;;;;;3.47;2.10;;;;;;;;;;10436800;28;20439;-86
2023/08/28 19:00:06;;;;;;;1.60;1.15;;;;;;;;;;10432128;28;20412;-86
2023/08/28 19:05:09;;;;;;;2.42;1.42;;;;;;;;;;10435114;28;20457;-85
2023/08/28 19:10:11;;;;;;;2.53;1.30;;;;;;;;;;10434188;28;20497;-86
2023/08/28 19:15:15;;;;;;;3.33;1.60;;;;;;;;;;10412126;28;20481;-85
2023/08/28 19:20:17;;;;;;;4.03;1.70;;;;;;;;;;10426469;28;20416;-85
2023/08/28 19:25:20;;;;;;;3.25;1.58;;;;;;;;;;10424773;28;20426;-82
2023/08/28 19:30:23;;;;;;;3.80;1.88;;;;;;;;;;10424143;28;20428;-87
2023/08/28 19:35:26;;;;;;;3.53;1.80;;;;;;;;;;10434745;28;20416;-85
2023/08/28 19:40:28;;;;;;;7.45;2.70;;;;;;;;;;10440525;28;20443;-85
2023/08/28 19:45:32;;;;;;;4.75;1.90;;;;;;;;;;10430922;28;20493;-86
2023/08/28 19:50:34;;;;;;;4.03;2.00;;;;;;;;;;10441423;28;20427;-87
2023/08/28 19:55:37;;;;;;;4.18;2.00;;;;;;;;;;10435140;28;21143;-87
2023/08/28 20:00:40;;;;;;;3.65;2.15;;;;;;;;;;10442906;28;20419;-87
2023/08/28 20:05:43;;;;;;;3.50;1.23;;;;;;;;;;10437645;28;20412;-86
2023/08/28 20:10:45;;;;;;;1.73;1.10;;;;;;;;;;10437138;28;20447;-87
2023/08/28 20:15:52;;;;;;;2.30;1.00;;;;;;;;;;10441422;28;20923;-87
2023/08/28 20:20:54;;;;;;;2.50;1.00;;;;;;;;;;10438160;28;20427;-86
2023/08/28 20:25:57;;;;;;;4.17;1.40;;;;;;;;;;10432135;28;20423;-88
2023/08/28 20:31:00;;;;;;;2.65;1.20;;;;;;;;;;10433232;28;20416;-87
2023/08/28 20:36:04;;;;;;;2.58;1.25;;;;;;;;;;10441014;28;20415;-86
2023/08/28 20:41:06;;;;;;;2.08;1.38;;;;;;;;;;10450210;28;20403;-86
2023/08/28 20:46:10;;;;;;;1.73;0.90;;;;;;;;;;10455384;28;20485;-85
2023/08/28 20:51:12;;;;;;;1.77;0.95;;;;;;;;;;10445662;28;20449;-86
2023/08/28 20:56:14;;;;;;;1.40;0.70;;;;;;;;;;10445516;28;20446;-87
2023/08/28 21:01:24;;;;;;;2.85;1.05;;;;;;;;;;10446972;28;20474;-86
2023/08/28 21:06:26;;;;;;;1.70;0.90;;;;;;;;;;10440315;28;20419;-89
2023/08/28 21:11:33;;;;;;;1.50;0.80;;;;;;;;;;10438575;28;21369;-86
2023/08/28 21:16:38;;;;;;;2.10;0.97;;;;;;;;;;10442933;28;20478;-88
2023/08/28 21:21:41;;;;;;;1.67;0.80;;;;;;;;;;10440610;28;20466;-86
2023/08/28 21:26:46;;;;;;;1.05;0.70;;;;;;;;;;10447106;28;20915;-86
2023/08/28 21:31:50;;;;;;;1.60;0.60;;;;;;;;;;10441000;28;20929;-89
2023/08/28 21:36:52;;;;;;;1.17;0.50;;;;;;;;;;10459258;22;20761;-86
2023/08/28 21:41:54;;;;;;;1.20;0.40;;;;;;;;;;10387540;28;20482;-86
2023/08/28 21:46:58;;;;;;;1.40;0.50;;;;;;;;;;10396144;28;20969;-86
2023/08/28 21:52:00;;;;;;;1.52;0.30;;;;;;;;;;10384715;28;20412;-86
2023/08/28 21:57:03;;;;;;;1.25;0.20;;;;;;;;;;10401891;28;20495;-86
2023/08/28 22:02:09;;;;;;;2.00;0.20;;;;;;;;;;10397977;28;20418;-86
2023/08/28 22:07:12;;;;;;;1.25;0.30;;;;;;;;;;10397827;28;20415;-86
2023/08/28 22:12:14;;;;;;;0.90;0.20;;;;;;;;;;10396982;28;20477;-86
2023/08/28 22:17:18;;;;;;;0.73;0.20;;;;;;;;;;10388756;28;20805;-87
2023/08/28 22:22:20;;;;;;;0.90;0.33;;;;;;;;;;10399011;28;20471;-87
2023/08/28 22:27:23;;;;;;;0.52;0.40;;;;;;;;;;10403805;28;20407;-87
2023/08/28 22:32:27;;;;;;;2.00;0.30;;;;;;;;;;10402898;28;20505;-86
2023/08/28 22:42:52;;;;;;;1.35;0.40;;;;;;;;;;10433512;22;20409;-87
2023/08/28 22:47:56;;;;;;;1.40;0.40;;;;;;;;;;10473515;28;20969;-87
2023/08/28 22:52:58;;;;;;;2.10;0.50;;;;;;;;;;10468843;28;21021;-87
2023/08/28 22:58:01;;;;;;;0.60;0.40;;;;;;;;;;10467576;28;20437;-84
2023/08/28 23:03:05;;;;;;;1.50;0.50;;;;;;;;;;10469247;28;20496;-87
2023/08/28 23:08:08;;;;;;;1.02;0.30;;;;;;;;;;10453785;28;20432;-87
2023/08/28 23:13:10;;;;;;;0.80;0.20;;;;;;;;;;10469267;28;20449;-88
2023/08/28 23:18:14;;;;;;;1.70;0.30;;;;;;;;;;10476206;28;20399;-86
2023/08/28 23:23:17;;;;;;;1.40;0.30;;;;;;;;;;10476615;28;20410;-86
2023/08/28 23:28:19;;;;;;;1.15;0.40;;;;;;;;;;10470320;28;20765;-86
2023/08/28 23:33:23;;;;;;;1.47;0.40;;;;;;;;;;10471665;28;20512;-85
2023/08/28 23:38:26;;;;;;;1.67;0.50;;;;;;;;;;10461328;28;20461;-86
2023/08/28 23:43:28;;;;;;;2.40;0.30;;;;;;;;;;10473538;28;20464;-85
2023/08/28 23:48:31;;;;;;;1.42;0.40;;;;;;;;;;10468743;28;20894;-86
2023/08/28 23:53:34;;;;;;;0.90;0.30;;;;;;;;;;10471084;28;20420;-86
2023/08/28 23:58:36;;;;;;;1.90;0.40;;;;;;;;;;10471221;28;20409;-85
